createdAt,value
2018-09-09T00:00:23.197Z,18.91
2018-09-09T00:02:02.733Z,18.66
2018-09-09T00:03:42.911Z,18.43
2018-09-09T00:05:19.262Z,18.20
2018-09-09T00:06:54.823Z,18.12
2018-09-09T00:08:30.555Z,18.04
2018-09-09T00:10:06.221Z,17.93
2018-09-09T00:11:42.473Z,17.78
2018-09-09T00:13:17.737Z,17.62
2018-09-09T00:14:53.356Z,17.57
2018-09-09T00:17:59.714Z,17.61
2018-09-09T00:19:34.924Z,17.53
2018-09-09T00:21:10.549Z,17.56
2018-09-09T00:22:45.770Z,17.54
2018-09-09T00:24:21.087Z,17.59
2018-09-09T00:25:56.479Z,17.63
2018-09-09T00:27:32.098Z,17.51
2018-09-09T00:29:07.633Z,17.44
2018-09-09T00:30:43.035Z,17.57
2018-09-09T00:32:18.225Z,17.71
2018-09-09T00:33:53.867Z,17.98
2018-09-09T00:35:29.616Z,18.15
2018-09-09T00:37:04.763Z,18.01
2018-09-09T00:38:39.952Z,17.70
2018-09-09T00:40:15.607Z,17.52
2018-09-09T00:41:50.784Z,17.51
2018-09-09T00:43:26.046Z,17.51
2018-09-09T00:45:01.251Z,17.57
2018-09-09T00:46:37.098Z,17.54
2018-09-09T00:48:12.309Z,17.35
2018-09-09T00:49:52.420Z,17.28
2018-09-09T00:51:32.619Z,17.22
2018-09-09T00:53:13.001Z,17.20
2018-09-09T00:54:48.238Z,17.16
2018-09-09T00:56:23.386Z,17.09
2018-09-09T00:57:58.661Z,17.03
2018-09-09T00:59:35.433Z,17.03
2018-09-09T01:01:19.686Z,16.97
2018-09-09T01:02:55.798Z,16.99
2018-09-09T01:04:31.264Z,16.96
2018-09-09T01:06:07.069Z,16.96
2018-09-09T01:07:42.388Z,16.92
2018-09-09T01:09:17.564Z,16.76
2018-09-09T01:10:54.525Z,16.66
2018-09-09T01:12:30.122Z,16.58
2018-09-09T01:14:06.235Z,16.55
2018-09-09T01:15:41.580Z,16.58
2018-09-09T01:17:16.949Z,16.52
2018-09-09T01:18:52.718Z,16.52
2018-09-09T01:20:29.580Z,16.66
2018-09-09T01:22:04.784Z,16.98
2018-09-09T01:23:40.089Z,17.49
2018-09-09T01:25:15.295Z,17.92
2018-09-09T01:26:50.468Z,18.36
2018-09-09T01:28:25.729Z,18.68
2018-09-09T01:30:01.016Z,18.90
2018-09-09T01:31:38.606Z,19.08
2018-09-09T01:33:13.793Z,19.22
2018-09-09T01:34:49.946Z,19.25
2018-09-09T01:36:25.196Z,19.30
2018-09-09T01:38:00.978Z,19.11
2018-09-09T01:39:36.162Z,18.75
2018-09-09T01:41:11.374Z,18.53
2018-09-09T01:42:46.547Z,18.40
2018-09-09T01:44:22.443Z,18.25
2018-09-09T01:45:59.665Z,18.11
2018-09-09T01:47:34.823Z,18.07
2018-09-09T01:49:10.396Z,17.94
2018-09-09T01:50:46.037Z,17.73
2018-09-09T01:52:21.280Z,17.67
2018-09-09T01:53:56.440Z,17.84
2018-09-09T01:55:32.441Z,17.77
2018-09-09T01:57:08.763Z,17.62
2018-09-09T01:58:45.118Z,17.51
2018-09-09T02:00:20.725Z,17.46
2018-09-09T02:01:55.946Z,17.41
2018-09-09T02:03:31.512Z,17.37
2018-09-09T02:05:06.843Z,17.45
2018-09-09T02:06:42.098Z,17.39
2018-09-09T02:08:17.281Z,17.32
2018-09-09T02:09:52.426Z,17.27
2018-09-09T02:11:28.806Z,17.23
2018-09-09T02:13:04.208Z,17.13
2018-09-09T02:14:40.243Z,17.07
2018-09-09T02:16:15.946Z,17.03
2018-09-09T02:17:51.099Z,17.04
2018-09-09T02:19:26.269Z,17.06
2018-09-09T02:21:02.006Z,17.10
2018-09-09T02:22:37.353Z,17.15
2018-09-09T02:24:14.643Z,17.20
2018-09-09T02:25:51.074Z,17.27
2018-09-09T02:27:27.157Z,17.34
2018-09-09T02:29:02.643Z,17.60
2018-09-09T02:30:38.485Z,17.64
2018-09-09T02:32:14.869Z,17.60
2018-09-09T02:33:51.373Z,17.60
2018-09-09T02:35:26.611Z,17.57
2018-09-09T02:37:02.126Z,17.38
2018-09-09T02:38:37.355Z,17.25
2018-09-09T02:40:12.990Z,17.23
2018-09-09T02:41:48.236Z,17.20
2018-09-09T02:43:24.231Z,17.13
2018-09-09T02:44:59.969Z,17.08
2018-09-09T02:46:39.669Z,17.08
2018-09-09T02:48:16.557Z,17.01
2018-09-09T02:49:51.714Z,17.03
2018-09-09T02:51:26.970Z,16.97
2018-09-09T02:53:03.193Z,16.92
2018-09-09T02:54:39.831Z,16.89
2018-09-09T02:56:15.092Z,16.93
2018-09-09T02:57:50.363Z,16.81
2018-09-09T02:59:26.042Z,16.68
2018-09-09T03:01:01.230Z,16.66
2018-09-09T03:02:36.910Z,16.52
2018-09-09T03:04:12.123Z,16.48
2018-09-09T03:05:47.683Z,16.50
2018-09-09T03:07:22.966Z,16.52
2018-09-09T03:08:58.155Z,16.57
2018-09-09T03:10:33.400Z,16.57
2018-09-09T03:12:08.889Z,16.67
2018-09-09T03:13:45.335Z,16.72
2018-09-09T03:15:20.687Z,16.66
2018-09-09T03:16:55.917Z,16.50
2018-09-09T03:18:31.091Z,16.33
2018-09-09T03:20:06.376Z,16.22
2018-09-09T03:21:41.589Z,16.14
2018-09-09T03:23:18.347Z,16.22
2018-09-09T03:24:53.514Z,16.12
2018-09-09T03:26:29.609Z,15.97
2018-09-09T03:28:06.214Z,15.95
2018-09-09T03:29:43.329Z,16.12
2018-09-09T03:31:18.567Z,16.42
2018-09-09T03:32:53.914Z,16.99
2018-09-09T03:34:29.121Z,17.36
2018-09-09T03:36:04.805Z,17.69
2018-09-09T03:37:40.067Z,17.81
2018-09-09T03:39:17.216Z,17.58
2018-09-09T03:40:54.705Z,17.41
2018-09-09T03:42:29.939Z,17.43
2018-09-09T03:44:05.609Z,17.30
2018-09-09T03:45:41.464Z,17.12
2018-09-09T03:47:16.662Z,16.89
2018-09-09T03:50:29.687Z,16.69
2018-09-09T03:52:05.358Z,16.65
2018-09-09T03:53:40.742Z,16.71
2018-09-09T03:55:21.468Z,16.78
2018-09-09T03:56:57.172Z,16.91
2018-09-09T03:58:32.910Z,16.94
2018-09-09T04:00:09.807Z,16.70
2018-09-09T04:01:46.801Z,16.48
2018-09-09T04:03:22.413Z,16.39
2018-09-09T04:05:01.837Z,16.31
2018-09-09T04:06:37.590Z,16.19
2018-09-09T04:08:16.229Z,16.30
2018-09-09T04:09:51.492Z,16.32
2018-09-09T04:11:26.898Z,16.34
2018-09-09T04:14:39.332Z,16.42
2018-09-09T04:16:15.645Z,16.42
2018-09-09T04:17:51.875Z,16.46
2018-09-09T04:19:27.603Z,16.48
2018-09-09T04:21:03.383Z,16.46
2018-09-09T04:22:38.609Z,16.51
2018-09-09T04:24:13.904Z,16.78
2018-09-09T04:25:49.295Z,17.11
2018-09-09T04:27:24.505Z,17.25
2018-09-09T04:28:59.691Z,17.33
2018-09-09T04:30:35.255Z,17.25
2018-09-09T04:32:10.537Z,17.10
2018-09-09T04:33:47.247Z,16.95
2018-09-09T04:35:22.429Z,16.90
2018-09-09T04:36:57.714Z,17.00
2018-09-09T04:38:33.863Z,17.11
2018-09-09T04:40:09.199Z,17.21
2018-09-09T04:41:44.533Z,17.30
2018-09-09T04:43:21.158Z,17.17
2018-09-09T04:44:57.222Z,16.96
2018-09-09T04:46:33.235Z,16.74
2018-09-09T04:48:08.711Z,16.53
2018-09-09T04:49:44.268Z,16.51
2018-09-09T04:51:19.446Z,16.45
2018-09-09T04:52:55.833Z,16.49
2018-09-09T04:54:32.507Z,16.48
2018-09-09T04:56:08.650Z,16.36
2018-09-09T04:57:44.650Z,16.39
2018-09-09T04:59:20.704Z,16.48
2018-09-09T05:00:56.471Z,16.59
2018-09-09T05:02:32.541Z,16.55
2018-09-09T05:04:09.084Z,16.41
2018-09-09T05:05:44.922Z,16.43
2018-09-09T05:07:20.586Z,16.44
2018-09-09T05:08:55.805Z,16.45
2018-09-09T05:10:31.010Z,16.39
2018-09-09T05:12:06.468Z,16.37
2018-09-09T05:13:41.896Z,16.42
2018-09-09T05:15:19.229Z,16.58
2018-09-09T05:16:54.457Z,16.65
2018-09-09T05:18:30.642Z,16.70
2018-09-09T05:20:06.279Z,16.61
2018-09-09T05:21:41.799Z,16.44
2018-09-09T05:23:17.116Z,16.33
2018-09-09T05:24:52.472Z,16.19
2018-09-09T05:26:27.651Z,16.08
2018-09-09T05:28:03.713Z,16.02
2018-09-09T05:29:39.560Z,16.01
2018-09-09T05:31:14.929Z,16.01
2018-09-09T05:32:50.301Z,16.03
2018-09-09T05:34:25.546Z,16.09
2018-09-09T05:36:00.773Z,16.32
2018-09-09T05:37:36.133Z,16.84
2018-09-09T05:39:12.503Z,17.40
2018-09-09T05:40:48.204Z,17.72
2018-09-09T05:42:23.537Z,17.98
2018-09-09T05:43:58.745Z,18.23
2018-09-09T05:45:34.618Z,18.45
2018-09-09T05:47:10.481Z,18.61
2018-09-09T05:48:45.856Z,18.45
2018-09-09T05:50:20.964Z,18.01
2018-09-09T05:51:56.808Z,17.70
2018-09-09T05:53:34.235Z,17.61
2018-09-09T05:55:11.743Z,17.48
2018-09-09T05:56:47.271Z,17.33
2018-09-09T05:58:23.316Z,17.23
2018-09-09T05:59:59.291Z,17.18
2018-09-09T06:01:35.793Z,17.11
2018-09-09T06:03:11.393Z,17.08
2018-09-09T06:04:47.579Z,17.03
2018-09-09T06:06:23.673Z,17.04
2018-09-09T06:07:58.914Z,16.95
2018-09-09T06:09:34.109Z,16.85
2018-09-09T06:11:09.314Z,16.75
2018-09-09T06:12:46.627Z,16.87
2018-09-09T06:14:22.386Z,16.85
2018-09-09T06:15:58.275Z,16.79
2018-09-09T06:17:34.080Z,16.82
2018-09-09T06:19:10.559Z,16.82
2018-09-09T06:20:46.615Z,16.80
2018-09-09T06:22:22.262Z,16.76
2018-09-09T06:23:57.996Z,16.78
2018-09-09T06:25:33.810Z,16.75
2018-09-09T06:27:09.025Z,16.67
2018-09-09T06:28:44.201Z,16.68
2018-09-09T06:30:20.855Z,16.78
2018-09-09T06:32:01.138Z,16.81
2018-09-09T06:33:39.657Z,16.83
2018-09-09T06:35:18.090Z,16.78
2018-09-09T06:36:54.304Z,16.91
2018-09-09T06:38:33.188Z,16.96
2018-09-09T06:40:13.687Z,16.89
2018-09-09T06:41:49.167Z,16.79
2018-09-09T06:43:24.852Z,16.79
2018-09-09T06:45:00.801Z,16.78
2018-09-09T06:46:39.170Z,16.74
2018-09-09T06:48:14.401Z,16.74
2018-09-09T06:49:49.650Z,16.80
2018-09-09T06:51:25.481Z,16.86
2018-09-09T06:53:00.741Z,16.90
2018-09-09T06:54:36.394Z,16.96
2018-09-09T06:56:11.630Z,16.99
2018-09-09T06:57:47.494Z,17.07
2018-09-09T06:59:22.900Z,17.07
2018-09-09T07:00:58.206Z,17.16
2018-09-09T07:02:33.819Z,17.32
2018-09-09T07:04:12.003Z,17.44
2018-09-09T07:05:47.484Z,17.60
2018-09-09T07:07:24.218Z,17.71
2018-09-09T07:08:59.710Z,17.85
2018-09-09T07:10:35.244Z,17.84
2018-09-09T07:12:10.575Z,17.81
2018-09-09T07:13:46.008Z,17.87
2018-09-09T07:15:21.913Z,17.86
2018-09-09T07:16:57.511Z,17.89
2018-09-09T07:18:33.499Z,17.89
2018-09-09T07:20:08.774Z,17.94
2018-09-09T07:21:44.567Z,17.88
2018-09-09T07:23:20.221Z,17.82
2018-09-09T07:24:56.391Z,17.85
2018-09-09T07:26:33.111Z,17.89
2018-09-09T07:28:09.576Z,17.93
2018-09-09T07:29:45.413Z,17.85
2018-09-09T07:31:21.491Z,17.76
2018-09-09T07:32:57.474Z,17.75
2018-09-09T07:34:33.308Z,17.86
2018-09-09T07:36:10.646Z,17.98
2018-09-09T07:37:45.949Z,18.12
2018-09-09T07:39:23.623Z,18.26
2018-09-09T07:41:00.465Z,18.37
2018-09-09T07:42:36.813Z,18.22
2018-09-09T07:44:12.082Z,18.31
2018-09-09T07:45:47.377Z,18.31
2018-09-09T07:47:25.283Z,18.48
2018-09-09T07:49:17.539Z,18.75
2018-09-09T07:51:06.040Z,18.85
2018-09-09T07:52:46.811Z,18.79
2018-09-09T07:54:26.519Z,18.68
2018-09-09T07:56:02.974Z,18.70
2018-09-09T07:57:39.879Z,18.63
2018-09-09T07:59:15.056Z,18.66
2018-09-09T08:00:51.042Z,18.84
2018-09-09T08:02:28.357Z,19.18
2018-09-09T08:04:03.596Z,19.59
2018-09-09T08:05:38.833Z,19.55
2018-09-09T08:07:17.991Z,19.58
2018-09-09T08:08:53.292Z,19.45
2018-09-09T08:10:28.480Z,19.41
2018-09-09T08:12:07.377Z,19.46
2018-09-09T08:13:43.982Z,19.66
2018-09-09T08:15:19.588Z,19.88
2018-09-09T08:17:01.364Z,19.96
2018-09-09T08:18:37.702Z,19.62
2018-09-09T08:20:13.529Z,19.36
2018-09-09T08:21:49.203Z,19.18
2018-09-09T08:23:26.618Z,19.17
2018-09-09T08:25:01.947Z,19.11
2018-09-09T08:26:37.718Z,19.37
2018-09-09T08:28:12.933Z,19.70
2018-09-09T08:29:49.265Z,19.73
2018-09-09T08:31:26.362Z,19.44
2018-09-09T08:33:01.993Z,19.36
2018-09-09T08:34:37.596Z,19.44
2018-09-09T08:36:13.185Z,19.56
2018-09-09T08:37:48.705Z,19.76
2018-09-09T08:39:25.665Z,19.89
2018-09-09T08:41:05.508Z,20.09
2018-09-09T08:42:43.764Z,20.49
2018-09-09T08:44:19.807Z,20.83
2018-09-09T08:45:56.511Z,20.78
2018-09-09T08:47:34.244Z,21.02
2018-09-09T08:49:10.400Z,21.36
2018-09-09T08:50:46.168Z,22.04
2018-09-09T08:52:22.915Z,22.35
2018-09-09T08:53:59.767Z,22.56
2018-09-09T08:55:36.487Z,22.56
2018-09-09T08:57:14.512Z,22.45
2018-09-09T08:58:55.419Z,22.48
2018-09-09T09:00:33.926Z,22.51
2018-09-09T09:02:09.880Z,22.68
2018-09-09T09:03:47.307Z,22.90
2018-09-09T09:05:25.635Z,23.19
2018-09-09T09:07:03.789Z,23.30
2018-09-09T09:08:39.640Z,23.44
2018-09-09T09:10:16.069Z,23.20
2018-09-09T09:11:52.790Z,22.60
2018-09-09T09:15:06.303Z,22.02
2018-09-09T09:16:46.735Z,21.93
2018-09-09T09:18:22.341Z,22.34
2018-09-09T09:19:58.681Z,22.92
2018-09-09T09:21:35.461Z,23.22
2018-09-09T09:23:10.894Z,23.49
2018-09-09T09:24:46.552Z,23.51
2018-09-09T09:26:23.497Z,23.82
2018-09-09T09:28:00.236Z,23.93
2018-09-09T09:29:44.868Z,24.07
2018-09-09T09:34:30.953Z,24.51
2018-09-09T09:36:06.389Z,24.49
2018-09-09T09:37:41.950Z,24.36
2018-09-09T09:39:18.977Z,24.36
2018-09-09T09:40:54.547Z,24.36
2018-09-09T09:42:30.793Z,23.84
2018-09-09T09:44:06.392Z,23.50
2018-09-09T09:45:41.981Z,23.49
2018-09-09T09:47:17.683Z,23.92
2018-09-09T09:48:54.550Z,24.35
2018-09-09T09:50:30.174Z,24.57
2018-09-09T09:52:06.361Z,24.85
2018-09-09T09:53:46.884Z,24.71
2018-09-09T09:55:22.337Z,24.57
2018-09-09T09:56:58.581Z,24.49
2018-09-09T09:58:36.483Z,24.93
2018-09-09T10:00:16.202Z,25.13
2018-09-09T10:01:53.133Z,24.92
2018-09-09T10:03:30.969Z,24.86
2018-09-09T10:05:07.668Z,24.90
2018-09-09T10:06:43.679Z,24.95
2018-09-09T10:08:20.207Z,25.15
2018-09-09T10:09:56.383Z,25.24
2018-09-09T10:11:32.576Z,25.26
2018-09-09T10:13:09.873Z,25.28
2018-09-09T10:14:47.562Z,25.43
2018-09-09T10:16:25.572Z,25.53
2018-09-09T10:18:01.753Z,25.63
2018-09-09T10:19:37.039Z,25.63
2018-09-09T10:21:13.461Z,25.56
2018-09-09T10:22:49.858Z,25.58
2018-09-09T10:24:25.445Z,25.58
2018-09-09T10:26:02.205Z,25.19
2018-09-09T10:27:38.336Z,24.77
2018-09-09T10:29:14.911Z,25.01
2018-09-09T10:30:50.237Z,25.10
2018-09-09T10:32:27.582Z,25.48
2018-09-09T10:34:03.839Z,25.65
2018-09-09T10:35:39.306Z,25.80
2018-09-09T10:37:14.525Z,25.93
2018-09-09T10:38:50.622Z,25.72
2018-09-09T10:40:26.395Z,25.82
2018-09-09T10:42:06.394Z,25.43
2018-09-09T10:43:43.342Z,25.28
2018-09-09T10:45:19.760Z,25.30
2018-09-09T10:46:55.549Z,25.31
2018-09-09T10:48:30.878Z,25.43
2018-09-09T10:50:07.118Z,25.18
2018-09-09T10:51:46.230Z,25.21
2018-09-09T10:53:22.200Z,25.04
2018-09-09T10:54:58.266Z,25.29
2018-09-09T10:56:33.567Z,25.54
2018-09-09T10:58:08.786Z,25.53
2018-09-09T10:59:44.961Z,25.43
2018-09-09T11:01:20.447Z,25.42
2018-09-09T11:02:57.082Z,25.13
2018-09-09T11:04:34.837Z,25.20
2018-09-09T11:06:10.715Z,25.35
2018-09-09T11:07:46.630Z,25.38
2018-09-09T11:09:21.757Z,25.45
2018-09-09T11:10:57.335Z,25.64
2018-09-09T11:12:33.088Z,25.75
2018-09-09T11:14:08.354Z,26.05
2018-09-09T11:15:43.914Z,26.25
2018-09-09T11:17:22.829Z,26.41
2018-09-09T11:18:58.419Z,26.45
2018-09-09T11:20:33.842Z,26.37
2018-09-09T11:22:08.994Z,26.17
2018-09-09T11:23:45.997Z,26.10
2018-09-09T11:25:21.922Z,26.06
2018-09-09T11:27:02.629Z,26.05
2018-09-09T11:28:37.863Z,26.13
2018-09-09T11:30:15.509Z,26.04
2018-09-09T11:31:51.541Z,25.86
2018-09-09T11:33:29.447Z,25.56
2018-09-09T11:35:04.684Z,25.68
2018-09-09T11:36:42.377Z,25.93
2018-09-09T11:38:20.557Z,26.00
2018-09-09T11:39:56.599Z,26.17
2018-09-09T11:41:33.454Z,26.23
2018-09-09T11:43:09.243Z,26.42
2018-09-09T11:44:44.481Z,26.27
2018-09-09T11:46:20.099Z,26.40
2018-09-09T11:47:55.356Z,26.33
2018-09-09T11:49:31.850Z,26.24
2018-09-09T11:51:07.245Z,26.18
2018-09-09T11:52:45.624Z,26.31
2018-09-09T11:54:21.506Z,26.47
2018-09-09T11:55:58.229Z,26.64
2018-09-09T11:57:34.100Z,26.59
2018-09-09T11:59:09.935Z,26.72
2018-09-09T12:00:45.530Z,26.85
2018-09-09T12:02:22.098Z,27.00
2018-09-09T12:03:57.355Z,27.10
2018-09-09T12:05:34.225Z,27.13
2018-09-09T12:07:09.454Z,27.32
2018-09-09T12:08:46.461Z,27.58
2018-09-09T12:10:22.653Z,27.48
2018-09-09T12:11:57.911Z,26.86
2018-09-09T12:13:33.782Z,26.14
2018-09-09T12:15:11.481Z,25.83
2018-09-09T12:16:48.992Z,26.35
2018-09-09T12:18:27.078Z,26.77
2018-09-09T12:20:02.305Z,26.97
2018-09-09T12:21:38.511Z,27.11
2018-09-09T12:23:13.746Z,27.09
2018-09-09T12:24:50.624Z,27.08
2018-09-09T12:26:26.482Z,26.83
2018-09-09T12:28:03.628Z,26.76
2018-09-09T12:29:39.725Z,26.87
2018-09-09T12:31:18.935Z,27.00
2018-09-09T12:32:54.803Z,27.13
2018-09-09T12:34:30.121Z,27.36
2018-09-09T12:36:08.678Z,27.48
2018-09-09T12:37:45.423Z,27.57
2018-09-09T12:39:21.561Z,27.80
2018-09-09T12:40:58.109Z,27.86
2018-09-09T12:42:33.289Z,27.94
2018-09-09T12:44:13.565Z,28.07
2018-09-09T12:45:56.949Z,28.11
2018-09-09T12:47:37.775Z,28.02
2018-09-09T12:49:13.893Z,28.06
2018-09-09T12:50:50.471Z,28.01
2018-09-09T12:52:27.241Z,27.94
2018-09-09T12:54:03.683Z,27.97
2018-09-09T12:55:39.038Z,27.99
2018-09-09T12:57:14.221Z,27.81
2018-09-09T12:58:49.440Z,27.52
2018-09-09T13:00:26.825Z,27.53
2018-09-09T13:02:02.028Z,27.39
2018-09-09T13:03:38.479Z,27.34
2018-09-09T13:05:13.836Z,27.32
2018-09-09T13:06:49.599Z,27.31
2018-09-09T13:08:25.415Z,27.27
2018-09-09T13:10:01.366Z,27.39
2018-09-09T13:11:36.581Z,27.35
2018-09-09T13:13:17.412Z,27.01
2018-09-09T13:14:54.220Z,27.26
2018-09-09T13:16:29.815Z,27.35
2018-09-09T13:18:05.870Z,27.18
2018-09-09T13:19:43.036Z,26.54
2018-09-09T13:21:18.982Z,26.33
2018-09-09T13:22:55.330Z,26.46
2018-09-09T13:24:32.021Z,26.61
2018-09-09T13:26:07.841Z,27.08
2018-09-09T13:27:46.281Z,27.26
2018-09-09T13:29:23.248Z,27.17
2018-09-09T13:31:01.457Z,27.42
2018-09-09T13:32:38.034Z,27.55
2018-09-09T13:34:14.890Z,27.68
2018-09-09T13:35:51.301Z,27.79
2018-09-09T13:37:26.581Z,27.88
2018-09-09T13:39:04.538Z,27.93
2018-09-09T13:40:40.368Z,28.04
2018-09-09T13:42:18.399Z,28.14
2018-09-09T13:43:56.111Z,28.22
2018-09-09T13:45:32.012Z,28.27
2018-09-09T13:47:08.096Z,28.30
2018-09-09T13:48:43.909Z,28.22
2018-09-09T13:50:19.882Z,28.25
2018-09-09T13:51:55.619Z,28.33
2018-09-09T13:53:31.565Z,28.33
2018-09-09T13:55:08.496Z,28.51
2018-09-09T13:56:43.858Z,28.73
2018-09-09T13:58:19.758Z,28.85
2018-09-09T13:59:55.069Z,28.99
2018-09-09T14:01:30.774Z,28.85
2018-09-09T14:03:06.163Z,28.87
2018-09-09T14:04:42.625Z,28.74
2018-09-09T14:06:17.920Z,28.80
2018-09-09T14:07:53.166Z,28.80
2018-09-09T14:09:28.456Z,28.67
2018-09-09T14:11:07.369Z,28.50
2018-09-09T14:12:51.058Z,28.56
2018-09-09T14:14:27.559Z,28.47
2018-09-09T14:16:03.370Z,28.06
2018-09-09T14:17:41.245Z,27.73
2018-09-09T14:19:17.305Z,27.80
2018-09-09T14:20:52.627Z,28.07
2018-09-09T14:22:28.753Z,28.18
2018-09-09T14:24:04.558Z,28.25
2018-09-09T14:25:39.777Z,28.31
2018-09-09T14:27:16.267Z,28.25
2018-09-09T14:28:51.499Z,28.38
2018-09-09T14:30:30.271Z,28.50
2018-09-09T14:32:06.374Z,28.51
2018-09-09T14:33:42.509Z,28.53
2018-09-09T14:35:19.959Z,28.50
2018-09-09T14:36:57.191Z,28.45
2018-09-09T14:38:34.052Z,28.43
2018-09-09T14:40:09.436Z,28.35
2018-09-09T14:41:54.527Z,28.40
2018-09-09T14:43:39.475Z,28.52
2018-09-09T14:45:21.490Z,28.60
2018-09-09T14:46:56.823Z,28.62
2018-09-09T14:48:33.743Z,28.50
2018-09-09T14:50:09.635Z,28.54
2018-09-09T14:53:30.448Z,28.63
2018-09-09T14:55:09.140Z,28.86
2018-09-09T14:56:47.842Z,28.92
2018-09-09T14:58:23.838Z,28.65
2018-09-09T15:00:06.676Z,27.97
2018-09-09T15:01:45.472Z,27.35
2018-09-09T15:03:23.097Z,27.20
2018-09-09T15:04:59.419Z,27.17
2018-09-09T15:06:35.748Z,27.15
2018-09-09T15:08:12.193Z,27.58
2018-09-09T15:09:47.788Z,27.39
2018-09-09T15:11:23.362Z,27.04
2018-09-09T15:13:02.817Z,26.97
2018-09-09T15:14:40.620Z,26.86
2018-09-09T15:16:19.586Z,26.41
2018-09-09T15:17:56.798Z,26.15
2018-09-09T15:19:33.476Z,25.87
2018-09-09T15:21:12.925Z,26.03
2018-09-09T15:22:51.559Z,26.03
2018-09-09T15:24:28.038Z,25.76
2018-09-09T15:26:03.324Z,25.65
2018-09-09T15:27:39.053Z,26.15
2018-09-09T15:29:15.149Z,26.27
2018-09-09T15:30:54.551Z,26.24
2018-09-09T15:32:29.832Z,26.19
2018-09-09T15:34:05.594Z,26.07
2018-09-09T15:35:41.643Z,26.13
2018-09-09T15:37:17.841Z,26.50
2018-09-09T15:38:54.202Z,26.97
2018-09-09T15:40:31.440Z,27.06
2018-09-09T15:42:07.397Z,27.47
2018-09-09T15:43:44.689Z,27.76
2018-09-09T15:45:25.467Z,27.73
2018-09-09T15:47:05.550Z,27.32
2018-09-09T15:48:43.748Z,27.28
2018-09-09T15:50:19.150Z,27.46
2018-09-09T15:51:56.689Z,27.65
2018-09-09T15:53:36.283Z,27.90
2018-09-09T15:55:16.066Z,27.81
2018-09-09T15:56:54.343Z,27.11
2018-09-09T15:58:33.817Z,26.81
2018-09-09T16:02:02.488Z,26.39
2018-09-09T16:03:45.251Z,26.20
2018-09-09T16:05:28.208Z,26.46
2018-09-09T16:07:13.861Z,26.75
2018-09-09T16:08:50.541Z,26.79
2018-09-09T16:10:43.514Z,27.22
2018-09-09T16:12:30.620Z,27.15
2018-09-09T16:14:13.503Z,27.06
2018-09-09T16:15:59.479Z,26.82
2018-09-09T16:17:50.646Z,26.66
2018-09-09T16:19:40.479Z,26.75
2018-09-09T16:21:17.588Z,26.82
2018-09-09T16:22:57.007Z,26.81
2018-09-09T16:24:36.484Z,26.86
2018-09-09T16:26:14.622Z,26.92
2018-09-09T16:27:55.184Z,27.19
2018-09-09T16:29:36.177Z,27.32
2018-09-09T16:31:13.596Z,27.26
2018-09-09T16:32:49.827Z,27.10
2018-09-09T16:34:25.706Z,27.09
2018-09-09T16:36:02.512Z,27.17
2018-09-09T16:37:37.954Z,27.16
2018-09-09T16:39:16.986Z,27.26
2018-09-09T16:40:55.944Z,27.50
2018-09-09T16:42:32.781Z,27.78
2018-09-09T16:44:08.236Z,27.74
2018-09-09T16:45:44.281Z,27.67
2018-09-09T16:47:19.741Z,27.83
2018-09-09T16:48:55.823Z,28.12
2018-09-09T16:50:35.322Z,28.33
2018-09-09T16:52:14.463Z,28.28
2018-09-09T16:53:52.563Z,28.44
2018-09-09T16:55:28.429Z,28.51
2018-09-09T16:57:06.280Z,28.57
2018-09-09T16:58:42.381Z,28.65
2018-09-09T17:00:31.628Z,28.78
2018-09-09T17:03:52.830Z,28.79
2018-09-09T17:05:30.261Z,28.68
2018-09-09T17:07:07.285Z,28.64
2018-09-09T17:08:43.770Z,28.18
2018-09-09T17:10:20.468Z,27.99
2018-09-09T17:11:57.364Z,27.69
2018-09-09T17:13:33.400Z,27.48
2018-09-09T17:15:10.661Z,27.57
2018-09-09T17:16:48.577Z,27.67
2018-09-09T17:18:25.091Z,27.76
2018-09-09T17:20:00.762Z,27.58
2018-09-09T17:21:37.422Z,27.49
2018-09-09T17:23:15.121Z,27.49
2018-09-09T17:24:52.936Z,27.19
2018-09-09T17:26:30.598Z,26.99
2018-09-09T17:28:07.275Z,26.65
2018-09-09T17:29:43.464Z,26.11
2018-09-09T17:31:19.381Z,25.75
2018-09-09T17:32:58.574Z,25.52
2018-09-09T17:34:34.215Z,25.47
2018-09-09T17:36:11.014Z,25.44
2018-09-09T17:37:46.856Z,25.39
2018-09-09T17:39:24.405Z,25.40
2018-09-09T17:41:04.724Z,25.39
2018-09-09T17:42:41.344Z,25.38
2018-09-09T17:44:17.573Z,25.42
2018-09-09T17:45:56.224Z,25.41
2018-09-09T17:47:33.348Z,25.40
2018-09-09T17:49:09.415Z,25.43
2018-09-09T17:50:44.703Z,25.35
2018-09-09T17:52:22.102Z,25.20
2018-09-09T17:53:58.840Z,25.19
2018-09-09T17:57:12.008Z,25.09
2018-09-09T17:58:49.182Z,25.11
2018-09-09T18:00:24.856Z,25.15
2018-09-09T18:02:01.093Z,25.08
2018-09-09T18:03:43.935Z,25.03
2018-09-09T18:05:20.491Z,25.12
2018-09-09T18:07:02.527Z,25.12
2018-09-09T18:08:43.193Z,25.06
2018-09-09T18:10:18.720Z,24.98
2018-09-09T18:12:01.642Z,24.88
2018-09-09T18:13:38.683Z,24.77
2018-09-09T18:15:18.174Z,24.61
2018-09-09T18:16:54.747Z,24.58
2018-09-09T18:18:32.477Z,24.71
2018-09-09T18:20:09.944Z,24.92
2018-09-09T18:21:48.201Z,25.16
2018-09-09T18:23:30.069Z,25.38
2018-09-09T18:25:09.793Z,25.48
2018-09-09T18:26:51.628Z,25.53
2018-09-09T18:28:33.496Z,25.62
2018-09-09T18:30:33.256Z,25.64
2018-09-09T18:32:11.420Z,25.70
2018-09-09T18:33:48.287Z,25.77
2018-09-09T18:35:26.743Z,25.55
2018-09-09T18:37:02.077Z,25.46
2018-09-09T18:38:39.541Z,25.34
2018-09-09T18:40:16.109Z,25.21
2018-09-09T18:41:57.362Z,25.13
2018-09-09T18:43:38.439Z,25.04
2018-09-09T18:45:16.131Z,25.01
2018-09-09T18:46:52.484Z,24.92
2018-09-09T18:48:33.443Z,24.82
2018-09-09T18:50:10.779Z,24.83
2018-09-09T18:51:47.275Z,24.90
2018-09-09T18:53:24.234Z,25.04
2018-09-09T18:55:01.336Z,25.10
2018-09-09T18:56:38.241Z,25.11
2018-09-09T18:58:26.724Z,24.87
2018-09-09T19:00:12.735Z,24.78
2018-09-09T19:02:00.032Z,24.70
2018-09-09T19:03:39.264Z,24.61
2018-09-09T19:05:40.640Z,24.58
2018-09-09T19:07:34.010Z,24.54
2018-09-09T19:09:27.785Z,24.54
2018-09-09T19:11:08.819Z,24.52
2018-09-09T19:12:47.222Z,24.56
2018-09-09T19:14:25.824Z,24.64
2018-09-09T19:16:04.334Z,24.69
2018-09-09T19:17:48.337Z,24.72
2018-09-09T19:19:27.914Z,24.69
2018-09-09T19:21:08.592Z,24.65
2018-09-09T19:22:45.551Z,24.57
2018-09-09T19:24:22.769Z,24.46
2018-09-09T19:26:10.451Z,24.45
2018-09-09T19:27:59.545Z,24.39
2018-09-09T19:29:47.272Z,24.36
2018-09-09T19:31:27.540Z,24.26
2018-09-09T19:33:06.478Z,24.07
2018-09-09T19:36:27.268Z,23.18
2018-09-09T19:38:02.681Z,22.79
2018-09-09T19:39:39.100Z,22.54
2018-09-09T19:41:19.087Z,22.56
2018-09-09T19:42:55.244Z,22.71
2018-09-09T19:44:35.546Z,22.88
2018-09-09T19:46:12.139Z,22.98
2018-09-09T19:47:49.748Z,23.07
2018-09-09T19:49:25.277Z,23.15
2018-09-09T19:51:01.712Z,23.16
2018-09-09T19:52:37.897Z,23.27
2018-09-09T19:54:13.836Z,23.36
2018-09-09T19:55:52.207Z,23.40
2018-09-09T19:57:31.172Z,23.44
2018-09-09T19:59:06.811Z,23.46
2018-09-09T20:00:45.424Z,23.42
2018-09-09T20:02:22.444Z,23.46
2018-09-09T20:03:58.528Z,23.46
2018-09-09T20:05:34.859Z,23.44
2018-09-09T20:07:12.246Z,23.38
2018-09-09T20:08:50.017Z,23.36
2018-09-09T20:10:26.197Z,22.97
2018-09-09T20:12:03.889Z,22.59
2018-09-09T20:13:47.002Z,22.29
2018-09-09T20:15:22.969Z,21.99
2018-09-09T20:16:58.581Z,22.02
2018-09-09T20:18:35.620Z,22.12
2018-09-09T20:20:13.352Z,22.24
2018-09-09T20:21:48.773Z,22.35
2018-09-09T20:23:24.237Z,22.47
2018-09-09T20:25:00.359Z,22.50
2018-09-09T20:26:36.484Z,22.47
2018-09-09T20:28:13.838Z,22.44
2018-09-09T20:29:50.862Z,22.36
2018-09-09T20:31:26.621Z,22.35
2018-09-09T20:33:05.047Z,22.46
2018-09-09T20:34:42.010Z,22.53
2018-09-09T20:36:22.629Z,22.40
2018-09-09T20:38:00.470Z,22.20
2018-09-09T20:39:36.486Z,22.24
2018-09-09T20:41:14.727Z,22.32
2018-09-09T20:44:59.304Z,22.82
2018-09-09T20:47:10.169Z,22.84
2018-09-09T20:48:54.948Z,22.83
2018-09-09T20:50:32.618Z,22.70
2018-09-09T20:52:09.124Z,22.54
2018-09-09T20:53:48.596Z,22.34
2018-09-09T20:55:44.405Z,22.01
2018-09-09T20:57:21.300Z,21.87
2018-09-09T20:59:06.237Z,21.82
2018-09-09T21:03:09.459Z,21.76
2018-09-09T21:04:46.458Z,21.82
2018-09-09T21:06:21.845Z,21.78
2018-09-09T21:07:57.541Z,21.68
2018-09-09T21:09:34.837Z,21.61
2018-09-09T21:11:10.280Z,21.43
2018-09-09T21:12:46.494Z,21.26